sensor_id;sensor_type;location;lat;lon;timestamp;temperature;humidity
17954;DHT22;9102;53.548;9.926;2023-04-07T00:01:37;6.90;99.90
17954;DHT22;9102;53.548;9.926;2023-04-07T00:04:04;6.90;99.90
17954;DHT22;9102;53.548;9.926;2023-04-07T00:06:32;6.90;99.90
17954;DHT22;9102;53.548;9.926;2023-04-07T00:08:59;6.90;99.90
17954;DHT22;9102;53.548;9.926;2023-04-07T00:11:26;7.00;99.90
17954;DHT22;9102;53.548;9.926;2023-04-07T00:13:52;6.80;99.90
17954;DHT22;9102;53.548;9.926;2023-04-07T00:16:19;6.80;99.90
17954;DHT22;9102;53.548;9.926;2023-04-07T00:18:46;6.70;99.90
17954;DHT22;9102;53.548;9.926;2023-04-07T00:21:13;6.80;99.90
17954;DHT22;9102;53.548;9.926;2023-04-07T00:23:41;6.70;99.90
17954;DHT22;9102;53.548;9.926;2023-04-07T00:26:08;6.80;99.90
17954;DHT22;9102;53.548;9.926;2023-04-07T00:28:35;6.70;99.90
17954;DHT22;9102;53.548;9.926;2023-04-07T00:31:02;6.70;99.90
17954;DHT22;9102;53.548;9.926;2023-04-07T00:33:29;6.70;99.90
17954;DHT22;9102;53.548;9.926;2023-04-07T00:35:55;6.70;99.90
17954;DHT22;9102;53.548;9.926;2023-04-07T00:38:23;6.70;99.90
17954;DHT22;9102;53.548;9.926;2023-04-07T00:40:56;6.70;99.90
17954;DHT22;9102;53.548;9.926;2023-04-07T00:43:24;6.60;99.90
17954;DHT22;9102;53.548;9.926;2023-04-07T00:45:51;6.60;99.90
17954;DHT22;9102;53.548;9.926;2023-04-07T00:48:18;6.70;99.90
17954;DHT22;9102;53.548;9.926;2023-04-07T00:50:45;6.60;99.90
17954;DHT22;9102;53.548;9.926;2023-04-07T00:53:12;6.60;99.90
17954;DHT22;9102;53.548;9.926;2023-04-07T00:55:43;6.50;99.90
17954;DHT22;9102;53.548;9.926;2023-04-07T00:58:11;6.50;99.90
17954;DHT22;9102;53.548;9.926;2023-04-07T01:00:48;6.50;99.90
17954;DHT22;9102;53.548;9.926;2023-04-07T01:03:19;6.50;99.90
17954;DHT22;9102;53.548;9.926;2023-04-07T01:05:53;6.50;99.90
17954;DHT22;9102;53.548;9.926;2023-04-07T01:08:25;6.40;99.90
17954;DHT22;9102;53.548;9.926;2023-04-07T01:10:58;6.40;99.90
17954;DHT22;9102;53.548;9.926;2023-04-07T01:13:32;6.40;99.90
17954;DHT22;9102;53.548;9.926;2023-04-07T01:16:04;6.40;99.90
17954;DHT22;9102;53.548;9.926;2023-04-07T01:18:32;6.50;99.90
17954;DHT22;9102;53.548;9.926;2023-04-07T01:21:02;6.30;99.90
17954;DHT22;9102;53.548;9.926;2023-04-07T01:23:40;6.30;99.90
17954;DHT22;9102;53.548;9.926;2023-04-07T01:26:19;6.30;99.90
17954;DHT22;9102;53.548;9.926;2023-04-07T01:29:06;6.30;99.90
17954;DHT22;9102;53.548;9.926;2023-04-07T01:31:39;6.20;99.90
17954;DHT22;9102;53.548;9.926;2023-04-07T01:34:08;6.20;99.90
17954;DHT22;9102;53.548;9.926;2023-04-07T01:36:35;6.20;99.90
17954;DHT22;9102;53.548;9.926;2023-04-07T01:39:03;6.20;99.90
17954;DHT22;9102;53.548;9.926;2023-04-07T01:41:31;6.20;99.90
17954;DHT22;9102;53.548;9.926;2023-04-07T01:44:00;6.10;99.90
17954;DHT22;9102;53.548;9.926;2023-04-07T01:46:27;6.10;99.90
17954;DHT22;9102;53.548;9.926;2023-04-07T01:48:56;6.10;99.90
17954;DHT22;9102;53.548;9.926;2023-04-07T01:51:24;6.10;99.90
17954;DHT22;9102;53.548;9.926;2023-04-07T01:53:52;6.00;99.90
17954;DHT22;9102;53.548;9.926;2023-04-07T01:56:19;6.00;99.90
17954;DHT22;9102;53.548;9.926;2023-04-07T01:58:46;5.90;99.90
17954;DHT22;9102;53.548;9.926;2023-04-07T02:01:13;5.90;99.90
17954;DHT22;9102;53.548;9.926;2023-04-07T02:03:43;5.90;99.90
17954;DHT22;9102;53.548;9.926;2023-04-07T02:06:18;5.90;99.90
17954;DHT22;9102;53.548;9.926;2023-04-07T02:08:50;5.90;99.90
17954;DHT22;9102;53.548;9.926;2023-04-07T02:11:20;5.90;99.90
17954;DHT22;9102;53.548;9.926;2023-04-07T02:13:49;5.80;99.90
17954;DHT22;9102;53.548;9.926;2023-04-07T02:16:16;5.80;99.90
17954;DHT22;9102;53.548;9.926;2023-04-07T02:18:45;5.80;99.90
17954;DHT22;9102;53.548;9.926;2023-04-07T02:21:15;5.80;99.90
17954;DHT22;9102;53.548;9.926;2023-04-07T02:23:43;5.70;99.90
17954;DHT22;9102;53.548;9.926;2023-04-07T02:26:09;5.80;99.90
17954;DHT22;9102;53.548;9.926;2023-04-07T02:28:36;5.60;99.90
17954;DHT22;9102;53.548;9.926;2023-04-07T02:31:03;5.60;99.90
17954;DHT22;9102;53.548;9.926;2023-04-07T02:33:30;5.60;99.90
17954;DHT22;9102;53.548;9.926;2023-04-07T02:35:57;5.60;99.90
17954;DHT22;9102;53.548;9.926;2023-04-07T02:38:25;5.60;99.90
17954;DHT22;9102;53.548;9.926;2023-04-07T02:40:51;5.60;99.90
17954;DHT22;9102;53.548;9.926;2023-04-07T02:43:19;5.50;99.90
17954;DHT22;9102;53.548;9.926;2023-04-07T02:45:46;5.60;99.90
17954;DHT22;9102;53.548;9.926;2023-04-07T02:48:13;5.50;99.90
17954;DHT22;9102;53.548;9.926;2023-04-07T02:50:40;5.40;99.90
17954;DHT22;9102;53.548;9.926;2023-04-07T02:53:07;5.40;99.90
17954;DHT22;9102;53.548;9.926;2023-04-07T02:55:36;5.40;99.90
17954;DHT22;9102;53.548;9.926;2023-04-07T02:58:03;5.40;99.90
17954;DHT22;9102;53.548;9.926;2023-04-07T03:00:30;5.30;99.90
17954;DHT22;9102;53.548;9.926;2023-04-07T03:02:57;5.20;99.90
17954;DHT22;9102;53.548;9.926;2023-04-07T03:05:23;5.30;99.90
17954;DHT22;9102;53.548;9.926;2023-04-07T03:07:50;5.30;99.90
17954;DHT22;9102;53.548;9.926;2023-04-07T03:10:17;5.30;99.90
17954;DHT22;9102;53.548;9.926;2023-04-07T03:12:45;5.30;99.90
17954;DHT22;9102;53.548;9.926;2023-04-07T03:15:12;5.20;99.90
17954;DHT22;9102;53.548;9.926;2023-04-07T03:17:39;5.20;99.90
17954;DHT22;9102;53.548;9.926;2023-04-07T03:20:07;5.20;99.90
17954;DHT22;9102;53.548;9.926;2023-04-07T03:22:34;5.20;99.90
17954;DHT22;9102;53.548;9.926;2023-04-07T03:25:01;5.20;99.90
17954;DHT22;9102;53.548;9.926;2023-04-07T03:27:30;5.10;99.90
17954;DHT22;9102;53.548;9.926;2023-04-07T03:29:58;5.20;99.90
17954;DHT22;9102;53.548;9.926;2023-04-07T03:32:25;5.20;99.90
17954;DHT22;9102;53.548;9.926;2023-04-07T03:34:52;5.20;99.90
17954;DHT22;9102;53.548;9.926;2023-04-07T03:37:18;5.10;99.90
17954;DHT22;9102;53.548;9.926;2023-04-07T03:39:45;5.10;99.90
17954;DHT22;9102;53.548;9.926;2023-04-07T03:42:13;5.10;99.90
17954;DHT22;9102;53.548;9.926;2023-04-07T03:44:40;5.10;99.90
17954;DHT22;9102;53.548;9.926;2023-04-07T03:47:08;5.10;99.90
17954;DHT22;9102;53.548;9.926;2023-04-07T03:49:35;5.10;99.90
17954;DHT22;9102;53.548;9.926;2023-04-07T03:52:03;5.10;99.90
17954;DHT22;9102;53.548;9.926;2023-04-07T03:54:29;5.00;99.90
17954;DHT22;9102;53.548;9.926;2023-04-07T03:56:56;5.00;99.90
17954;DHT22;9102;53.548;9.926;2023-04-07T03:59:23;5.00;99.90
17954;DHT22;9102;53.548;9.926;2023-04-07T04:01:50;5.00;99.90
17954;DHT22;9102;53.548;9.926;2023-04-07T04:04:18;5.00;99.90
17954;DHT22;9102;53.548;9.926;2023-04-07T04:06:45;5.00;99.90
17954;DHT22;9102;53.548;9.926;2023-04-07T04:09:12;5.10;99.90
17954;DHT22;9102;53.548;9.926;2023-04-07T04:11:39;5.00;99.90
17954;DHT22;9102;53.548;9.926;2023-04-07T04:14:06;5.00;99.90
17954;DHT22;9102;53.548;9.926;2023-04-07T04:16:33;5.00;99.90
17954;DHT22;9102;53.548;9.926;2023-04-07T04:19:00;5.00;99.90
17954;DHT22;9102;53.548;9.926;2023-04-07T04:21:29;5.00;99.90
17954;DHT22;9102;53.548;9.926;2023-04-07T04:23:55;5.00;99.90
17954;DHT22;9102;53.548;9.926;2023-04-07T04:26:22;5.00;99.90
17954;DHT22;9102;53.548;9.926;2023-04-07T04:28:50;4.90;99.90
17954;DHT22;9102;53.548;9.926;2023-04-07T04:31:17;4.90;99.90
17954;DHT22;9102;53.548;9.926;2023-04-07T04:33:44;4.90;99.90
17954;DHT22;9102;53.548;9.926;2023-04-07T04:36:11;4.90;99.90
17954;DHT22;9102;53.548;9.926;2023-04-07T04:38:39;4.90;99.90
17954;DHT22;9102;53.548;9.926;2023-04-07T04:41:05;4.80;99.90
17954;DHT22;9102;53.548;9.926;2023-04-07T04:43:32;4.80;99.90
17954;DHT22;9102;53.548;9.926;2023-04-07T04:45:59;4.80;99.90
17954;DHT22;9102;53.548;9.926;2023-04-07T04:48:26;4.80;99.90
17954;DHT22;9102;53.548;9.926;2023-04-07T04:50:53;4.90;99.90
17954;DHT22;9102;53.548;9.926;2023-04-07T04:53:20;4.90;99.90
17954;DHT22;9102;53.548;9.926;2023-04-07T04:55:48;4.80;99.90
17954;DHT22;9102;53.548;9.926;2023-04-07T04:58:16;4.80;99.90
17954;DHT22;9102;53.548;9.926;2023-04-07T05:00:43;4.80;99.90
17954;DHT22;9102;53.548;9.926;2023-04-07T05:03:10;4.90;99.90
17954;DHT22;9102;53.548;9.926;2023-04-07T05:05:37;4.90;99.90
17954;DHT22;9102;53.548;9.926;2023-04-07T05:08:04;4.80;99.90
17954;DHT22;9102;53.548;9.926;2023-04-07T05:10:31;4.80;99.90
17954;DHT22;9102;53.548;9.926;2023-04-07T05:13:00;4.80;99.90
17954;DHT22;9102;53.548;9.926;2023-04-07T05:15:26;4.80;99.90
17954;DHT22;9102;53.548;9.926;2023-04-07T05:17:53;4.80;99.90
17954;DHT22;9102;53.548;9.926;2023-04-07T05:20:20;4.80;99.90
17954;DHT22;9102;53.548;9.926;2023-04-07T05:22:46;4.90;99.90
17954;DHT22;9102;53.548;9.926;2023-04-07T05:25:13;4.80;99.90
17954;DHT22;9102;53.548;9.926;2023-04-07T05:27:40;4.80;99.90
17954;DHT22;9102;53.548;9.926;2023-04-07T05:30:09;4.90;99.90
17954;DHT22;9102;53.548;9.926;2023-04-07T05:32:36;4.90;99.90
17954;DHT22;9102;53.548;9.926;2023-04-07T05:35:03;4.90;99.90
17954;DHT22;9102;53.548;9.926;2023-04-07T05:37:30;4.90;99.90
17954;DHT22;9102;53.548;9.926;2023-04-07T05:39:57;5.00;99.90
17954;DHT22;9102;53.548;9.926;2023-04-07T05:42:24;4.90;99.90
17954;DHT22;9102;53.548;9.926;2023-04-07T05:44:51;5.00;99.90
17954;DHT22;9102;53.548;9.926;2023-04-07T05:47:19;5.10;99.90
17954;DHT22;9102;53.548;9.926;2023-04-07T05:49:46;5.00;99.90
17954;DHT22;9102;53.548;9.926;2023-04-07T05:52:13;5.10;99.90
17954;DHT22;9102;53.548;9.926;2023-04-07T05:54:40;5.10;99.90
17954;DHT22;9102;53.548;9.926;2023-04-07T05:57:07;5.20;99.90
17954;DHT22;9102;53.548;9.926;2023-04-07T05:59:34;5.20;99.90
17954;DHT22;9102;53.548;9.926;2023-04-07T06:02:01;5.20;99.90
17954;DHT22;9102;53.548;9.926;2023-04-07T06:04:29;5.30;99.90
17954;DHT22;9102;53.548;9.926;2023-04-07T06:06:57;5.30;99.90
17954;DHT22;9102;53.548;9.926;2023-04-07T06:09:24;5.40;99.90
17954;DHT22;9102;53.548;9.926;2023-04-07T06:11:51;5.40;99.90
17954;DHT22;9102;53.548;9.926;2023-04-07T06:14:17;5.50;99.90
17954;DHT22;9102;53.548;9.926;2023-04-07T06:16:45;5.50;99.90
17954;DHT22;9102;53.548;9.926;2023-04-07T06:19:12;5.50;99.90
17954;DHT22;9102;53.548;9.926;2023-04-07T06:21:40;5.60;99.90
17954;DHT22;9102;53.548;9.926;2023-04-07T06:24:07;5.60;99.90
17954;DHT22;9102;53.548;9.926;2023-04-07T06:26:34;5.60;99.90
17954;DHT22;9102;53.548;9.926;2023-04-07T06:29:01;5.70;99.90
17954;DHT22;9102;53.548;9.926;2023-04-07T06:31:27;5.80;99.90
17954;DHT22;9102;53.548;9.926;2023-04-07T06:33:54;5.70;99.90
17954;DHT22;9102;53.548;9.926;2023-04-07T06:36:21;5.80;99.90
17954;DHT22;9102;53.548;9.926;2023-04-07T06:38:50;5.90;99.90
17954;DHT22;9102;53.548;9.926;2023-04-07T06:41:17;5.90;99.90
17954;DHT22;9102;53.548;9.926;2023-04-07T06:46:11;6.10;99.90
17954;DHT22;9102;53.548;9.926;2023-04-07T06:48:37;6.20;99.90
17954;DHT22;9102;53.548;9.926;2023-04-07T06:51:04;6.20;99.90
17954;DHT22;9102;53.548;9.926;2023-04-07T06:53:31;6.30;99.90
17954;DHT22;9102;53.548;9.926;2023-04-07T06:56:07;6.30;99.90
17954;DHT22;9102;53.548;9.926;2023-04-07T06:58:35;6.40;99.90
17954;DHT22;9102;53.548;9.926;2023-04-07T07:01:03;6.50;99.90
17954;DHT22;9102;53.548;9.926;2023-04-07T07:03:29;6.60;99.90
17954;DHT22;9102;53.548;9.926;2023-04-07T07:05:57;6.60;99.90
17954;DHT22;9102;53.548;9.926;2023-04-07T07:08:24;6.70;99.90
17954;DHT22;9102;53.548;9.926;2023-04-07T07:10:51;6.80;99.90
17954;DHT22;9102;53.548;9.926;2023-04-07T07:13:21;6.80;99.90
17954;DHT22;9102;53.548;9.926;2023-04-07T07:15:48;6.90;99.90
17954;DHT22;9102;53.548;9.926;2023-04-07T07:18:15;6.90;99.90
17954;DHT22;9102;53.548;9.926;2023-04-07T07:20:42;7.00;99.90
17954;DHT22;9102;53.548;9.926;2023-04-07T07:23:09;7.10;99.90
17954;DHT22;9102;53.548;9.926;2023-04-07T07:25:36;7.10;99.90
17954;DHT22;9102;53.548;9.926;2023-04-07T07:28:03;7.20;99.90
17954;DHT22;9102;53.548;9.926;2023-04-07T07:30:31;7.40;99.90
17954;DHT22;9102;53.548;9.926;2023-04-07T07:32:59;7.40;99.90
17954;DHT22;9102;53.548;9.926;2023-04-07T07:35:25;7.50;99.90
17954;DHT22;9102;53.548;9.926;2023-04-07T07:37:52;7.50;99.90
17954;DHT22;9102;53.548;9.926;2023-04-07T07:40:19;7.60;99.90
17954;DHT22;9102;53.548;9.926;2023-04-07T07:42:46;7.70;99.90
17954;DHT22;9102;53.548;9.926;2023-04-07T07:45:14;7.80;99.90
17954;DHT22;9102;53.548;9.926;2023-04-07T07:47:45;7.90;99.90
17954;DHT22;9102;53.548;9.926;2023-04-07T07:50:12;8.00;99.90
17954;DHT22;9102;53.548;9.926;2023-04-07T07:52:39;8.10;99.90
17954;DHT22;9102;53.548;9.926;2023-04-07T07:55:06;8.10;99.90
17954;DHT22;9102;53.548;9.926;2023-04-07T07:57:36;8.30;99.90
17954;DHT22;9102;53.548;9.926;2023-04-07T08:00:03;8.30;99.40
17954;DHT22;9102;53.548;9.926;2023-04-07T08:02:30;8.40;99.20
17954;DHT22;9102;53.548;9.926;2023-04-07T08:04:59;8.50;98.90
17954;DHT22;9102;53.548;9.926;2023-04-07T08:07:26;8.60;98.10
17954;DHT22;9102;53.548;9.926;2023-04-07T08:09:53;8.60;97.20
17954;DHT22;9102;53.548;9.926;2023-04-07T08:12:20;8.60;97.00
17954;DHT22;9102;53.548;9.926;2023-04-07T08:14:47;8.70;97.60
17954;DHT22;9102;53.548;9.926;2023-04-07T08:17:15;8.80;97.10
17954;DHT22;9102;53.548;9.926;2023-04-07T08:19:41;9.00;96.70
17954;DHT22;9102;53.548;9.926;2023-04-07T08:22:10;8.90;96.20
17954;DHT22;9102;53.548;9.926;2023-04-07T08:24:37;8.90;96.10
17954;DHT22;9102;53.548;9.926;2023-04-07T08:27:03;9.00;96.10
17954;DHT22;9102;53.548;9.926;2023-04-07T08:29:30;9.10;96.20
17954;DHT22;9102;53.548;9.926;2023-04-07T08:31:57;9.20;94.80
17954;DHT22;9102;53.548;9.926;2023-04-07T08:34:24;9.20;94.30
17954;DHT22;9102;53.548;9.926;2023-04-07T08:36:51;9.30;93.80
17954;DHT22;9102;53.548;9.926;2023-04-07T08:39:19;9.40;93.80
17954;DHT22;9102;53.548;9.926;2023-04-07T08:41:48;9.40;93.50
17954;DHT22;9102;53.548;9.926;2023-04-07T08:44:16;9.50;93.50
17954;DHT22;9102;53.548;9.926;2023-04-07T08:46:43;9.50;92.90
17954;DHT22;9102;53.548;9.926;2023-04-07T08:49:11;9.50;92.60
17954;DHT22;9102;53.548;9.926;2023-04-07T08:51:44;9.50;92.30
17954;DHT22;9102;53.548;9.926;2023-04-07T08:54:13;9.40;91.80
17954;DHT22;9102;53.548;9.926;2023-04-07T08:56:42;9.50;91.50
17954;DHT22;9102;53.548;9.926;2023-04-07T08:59:10;9.50;91.40
17954;DHT22;9102;53.548;9.926;2023-04-07T09:01:38;9.50;91.20
17954;DHT22;9102;53.548;9.926;2023-04-07T09:04:05;9.50;90.90
17954;DHT22;9102;53.548;9.926;2023-04-07T09:06:33;9.50;90.40
17954;DHT22;9102;53.548;9.926;2023-04-07T09:09:01;9.50;90.40
17954;DHT22;9102;53.548;9.926;2023-04-07T09:11:34;9.70;90.10
17954;DHT22;9102;53.548;9.926;2023-04-07T09:14:02;9.80;90.20
17954;DHT22;9102;53.548;9.926;2023-04-07T09:16:29;10.00;89.70
17954;DHT22;9102;53.548;9.926;2023-04-07T09:18:56;10.10;89.00
17954;DHT22;9102;53.548;9.926;2023-04-07T09:21:23;10.20;88.50
17954;DHT22;9102;53.548;9.926;2023-04-07T09:23:51;10.30;87.70
17954;DHT22;9102;53.548;9.926;2023-04-07T09:26:20;10.40;87.40
17954;DHT22;9102;53.548;9.926;2023-04-07T09:28:49;10.50;87.10
17954;DHT22;9102;53.548;9.926;2023-04-07T09:31:18;10.70;86.80
17954;DHT22;9102;53.548;9.926;2023-04-07T09:33:45;10.70;84.70
17954;DHT22;9102;53.548;9.926;2023-04-07T09:36:12;10.70;84.40
17954;DHT22;9102;53.548;9.926;2023-04-07T09:38:40;10.70;83.90
17954;DHT22;9102;53.548;9.926;2023-04-07T09:41:09;10.70;83.30
17954;DHT22;9102;53.548;9.926;2023-04-07T09:43:37;10.70;80.40
17954;DHT22;9102;53.548;9.926;2023-04-07T09:46:09;10.60;79.50
17954;DHT22;9102;53.548;9.926;2023-04-07T09:48:38;10.70;80.30
17954;DHT22;9102;53.548;9.926;2023-04-07T09:51:07;10.80;79.70
17954;DHT22;9102;53.548;9.926;2023-04-07T09:53:44;10.90;79.40
17954;DHT22;9102;53.548;9.926;2023-04-07T09:56:12;11.00;79.70
17954;DHT22;9102;53.548;9.926;2023-04-07T09:58:40;11.10;79.10
17954;DHT22;9102;53.548;9.926;2023-04-07T10:01:09;11.20;78.90
17954;DHT22;9102;53.548;9.926;2023-04-07T10:03:38;11.10;78.70
17954;DHT22;9102;53.548;9.926;2023-04-07T10:06:05;11.20;78.30
17954;DHT22;9102;53.548;9.926;2023-04-07T10:08:34;11.10;78.60
17954;DHT22;9102;53.548;9.926;2023-04-07T10:11:01;11.10;77.70
17954;DHT22;9102;53.548;9.926;2023-04-07T10:13:29;11.00;76.60
17954;DHT22;9102;53.548;9.926;2023-04-07T10:15:57;11.10;75.90
17954;DHT22;9102;53.548;9.926;2023-04-07T10:18:28;11.20;75.60
17954;DHT22;9102;53.548;9.926;2023-04-07T10:21:00;11.20;75.30
17954;DHT22;9102;53.548;9.926;2023-04-07T10:23:43;11.20;75.10
17954;DHT22;9102;53.548;9.926;2023-04-07T10:26:14;11.20;75.30
17954;DHT22;9102;53.548;9.926;2023-04-07T10:28:43;11.30;75.40
17954;DHT22;9102;53.548;9.926;2023-04-07T10:31:12;11.40;75.10
17954;DHT22;9102;53.548;9.926;2023-04-07T10:33:46;11.30;73.90
17954;DHT22;9102;53.548;9.926;2023-04-07T10:36:16;11.50;74.90
17954;DHT22;9102;53.548;9.926;2023-04-07T10:39:19;11.40;74.90
17954;DHT22;9102;53.548;9.926;2023-04-07T10:41:46;11.60;75.30
17954;DHT22;9102;53.548;9.926;2023-04-07T10:44:44;11.60;74.00
17954;DHT22;9102;53.548;9.926;2023-04-07T10:47:13;11.60;73.20
17954;DHT22;9102;53.548;9.926;2023-04-07T10:50:19;11.60;73.10
17954;DHT22;9102;53.548;9.926;2023-04-07T10:52:48;11.80;73.60
17954;DHT22;9102;53.548;9.926;2023-04-07T10:55:29;12.00;71.90
17954;DHT22;9102;53.548;9.926;2023-04-07T10:58:17;12.10;71.70
17954;DHT22;9102;53.548;9.926;2023-04-07T11:03:56;12.30;69.30
17954;DHT22;9102;53.548;9.926;2023-04-07T11:06:25;12.30;69.00
17954;DHT22;9102;53.548;9.926;2023-04-07T11:08:54;12.30;68.30
17954;DHT22;9102;53.548;9.926;2023-04-07T11:11:39;12.20;68.70
17954;DHT22;9102;53.548;9.926;2023-04-07T11:14:07;12.20;69.10
17954;DHT22;9102;53.548;9.926;2023-04-07T11:16:39;12.10;68.30
17954;DHT22;9102;53.548;9.926;2023-04-07T11:19:07;12.20;67.70
17954;DHT22;9102;53.548;9.926;2023-04-07T11:21:35;12.10;66.40
17954;DHT22;9102;53.548;9.926;2023-04-07T11:24:02;12.20;67.80
17954;DHT22;9102;53.548;9.926;2023-04-07T11:26:29;12.20;68.30
17954;DHT22;9102;53.548;9.926;2023-04-07T11:29:02;12.10;67.40
17954;DHT22;9102;53.548;9.926;2023-04-07T11:31:30;12.20;67.70
17954;DHT22;9102;53.548;9.926;2023-04-07T11:33:57;12.30;68.50
17954;DHT22;9102;53.548;9.926;2023-04-07T11:36:26;12.40;69.30
17954;DHT22;9102;53.548;9.926;2023-04-07T11:38:55;12.40;68.50
17954;DHT22;9102;53.548;9.926;2023-04-07T11:41:23;12.50;69.50
17954;DHT22;9102;53.548;9.926;2023-04-07T11:44:03;12.50;70.90
17954;DHT22;9102;53.548;9.926;2023-04-07T11:46:30;12.60;70.80
17954;DHT22;9102;53.548;9.926;2023-04-07T11:49:08;12.60;70.40
17954;DHT22;9102;53.548;9.926;2023-04-07T11:51:35;12.90;70.50
17954;DHT22;9102;53.548;9.926;2023-04-07T11:54:03;13.20;69.60
17954;DHT22;9102;53.548;9.926;2023-04-07T11:56:41;13.40;68.60
17954;DHT22;9102;53.548;9.926;2023-04-07T11:59:17;13.40;68.80
17954;DHT22;9102;53.548;9.926;2023-04-07T12:01:45;13.00;69.70
17954;DHT22;9102;53.548;9.926;2023-04-07T12:04:13;12.90;69.90
17954;DHT22;9102;53.548;9.926;2023-04-07T12:06:40;13.10;68.70
17954;DHT22;9102;53.548;9.926;2023-04-07T12:09:26;13.20;68.30
17954;DHT22;9102;53.548;9.926;2023-04-07T12:11:54;13.20;67.80
17954;DHT22;9102;53.548;9.926;2023-04-07T12:14:21;12.90;67.60
17954;DHT22;9102;53.548;9.926;2023-04-07T12:16:48;12.50;67.90
17954;DHT22;9102;53.548;9.926;2023-04-07T12:19:15;12.40;68.30
17954;DHT22;9102;53.548;9.926;2023-04-07T12:21:42;12.20;68.20
17954;DHT22;9102;53.548;9.926;2023-04-07T12:24:10;12.10;68.30
17954;DHT22;9102;53.548;9.926;2023-04-07T12:26:37;12.10;68.50
17954;DHT22;9102;53.548;9.926;2023-04-07T12:29:04;12.20;68.50
17954;DHT22;9102;53.548;9.926;2023-04-07T12:31:31;12.20;69.10
17954;DHT22;9102;53.548;9.926;2023-04-07T12:33:59;12.30;68.90
17954;DHT22;9102;53.548;9.926;2023-04-07T12:36:26;12.40;68.40
17954;DHT22;9102;53.548;9.926;2023-04-07T12:38:54;12.60;66.00
17954;DHT22;9102;53.548;9.926;2023-04-07T12:41:23;12.40;65.40
17954;DHT22;9102;53.548;9.926;2023-04-07T12:43:52;12.40;66.00
17954;DHT22;9102;53.548;9.926;2023-04-07T12:46:19;12.40;66.10
17954;DHT22;9102;53.548;9.926;2023-04-07T12:48:46;12.30;66.40
17954;DHT22;9102;53.548;9.926;2023-04-07T12:51:14;12.20;67.10
17954;DHT22;9102;53.548;9.926;2023-04-07T12:53:40;12.20;66.40
17954;DHT22;9102;53.548;9.926;2023-04-07T12:56:07;12.10;66.30
17954;DHT22;9102;53.548;9.926;2023-04-07T12:58:35;12.20;67.70
17954;DHT22;9102;53.548;9.926;2023-04-07T13:01:02;12.20;67.30
17954;DHT22;9102;53.548;9.926;2023-04-07T13:03:29;12.40;67.40
17954;DHT22;9102;53.548;9.926;2023-04-07T13:05:56;12.50;66.00
17954;DHT22;9102;53.548;9.926;2023-04-07T13:08:26;12.50;65.70
17954;DHT22;9102;53.548;9.926;2023-04-07T13:10:53;12.30;66.00
17954;DHT22;9102;53.548;9.926;2023-04-07T13:13:20;12.20;66.80
17954;DHT22;9102;53.548;9.926;2023-04-07T13:15:51;12.20;67.20
17954;DHT22;9102;53.548;9.926;2023-04-07T13:18:18;12.20;66.70
17954;DHT22;9102;53.548;9.926;2023-04-07T13:20:45;12.30;66.30
17954;DHT22;9102;53.548;9.926;2023-04-07T13:23:12;12.30;65.70
17954;DHT22;9102;53.548;9.926;2023-04-07T13:25:38;12.20;66.40
17954;DHT22;9102;53.548;9.926;2023-04-07T13:28:09;12.20;67.20
17954;DHT22;9102;53.548;9.926;2023-04-07T13:30:36;12.10;67.90
17954;DHT22;9102;53.548;9.926;2023-04-07T13:33:04;12.10;67.40
17954;DHT22;9102;53.548;9.926;2023-04-07T13:35:31;12.10;67.70
17954;DHT22;9102;53.548;9.926;2023-04-07T13:38:00;12.20;68.50
17954;DHT22;9102;53.548;9.926;2023-04-07T13:40:27;12.30;68.80
17954;DHT22;9102;53.548;9.926;2023-04-07T13:42:54;12.20;68.60
17954;DHT22;9102;53.548;9.926;2023-04-07T13:45:21;12.40;68.80
17954;DHT22;9102;53.548;9.926;2023-04-07T13:47:48;12.30;69.00
17954;DHT22;9102;53.548;9.926;2023-04-07T13:50:16;12.30;68.50
17954;DHT22;9102;53.548;9.926;2023-04-07T13:52:43;12.30;70.00
17954;DHT22;9102;53.548;9.926;2023-04-07T13:55:11;12.40;69.70
17954;DHT22;9102;53.548;9.926;2023-04-07T13:57:40;12.50;69.80
17954;DHT22;9102;53.548;9.926;2023-04-07T14:00:11;12.50;69.10
17954;DHT22;9102;53.548;9.926;2023-04-07T14:02:38;12.50;68.80
17954;DHT22;9102;53.548;9.926;2023-04-07T14:05:06;12.50;69.00
17954;DHT22;9102;53.548;9.926;2023-04-07T14:07:34;12.40;70.10
17954;DHT22;9102;53.548;9.926;2023-04-07T14:10:01;12.30;69.80
17954;DHT22;9102;53.548;9.926;2023-04-07T14:12:27;12.30;70.00
17954;DHT22;9102;53.548;9.926;2023-04-07T14:14:54;12.40;71.60
17954;DHT22;9102;53.548;9.926;2023-04-07T14:17:21;12.40;70.30
17954;DHT22;9102;53.548;9.926;2023-04-07T14:19:48;12.50;70.30
17954;DHT22;9102;53.548;9.926;2023-04-07T14:22:15;12.60;71.20
17954;DHT22;9102;53.548;9.926;2023-04-07T14:24:43;12.50;70.70
17954;DHT22;9102;53.548;9.926;2023-04-07T14:27:10;12.60;70.60
17954;DHT22;9102;53.548;9.926;2023-04-07T14:29:38;12.40;71.60
17954;DHT22;9102;53.548;9.926;2023-04-07T14:32:05;12.40;77.90
17954;DHT22;9102;53.548;9.926;2023-04-07T14:34:32;12.10;82.90
17954;DHT22;9102;53.548;9.926;2023-04-07T14:36:59;12.00;86.10
17954;DHT22;9102;53.548;9.926;2023-04-07T14:39:26;12.10;87.50
17954;DHT22;9102;53.548;9.926;2023-04-07T14:41:54;12.10;88.80
17954;DHT22;9102;53.548;9.926;2023-04-07T14:44:21;12.10;90.00
17954;DHT22;9102;53.548;9.926;2023-04-07T14:46:48;12.20;90.00
17954;DHT22;9102;53.548;9.926;2023-04-07T14:49:15;12.20;90.40
17954;DHT22;9102;53.548;9.926;2023-04-07T14:51:42;12.20;91.30
17954;DHT22;9102;53.548;9.926;2023-04-07T14:54:09;12.50;92.20
17954;DHT22;9102;53.548;9.926;2023-04-07T14:56:36;12.40;93.30
17954;DHT22;9102;53.548;9.926;2023-04-07T14:59:04;12.20;94.60
17954;DHT22;9102;53.548;9.926;2023-04-07T15:01:31;12.00;98.00
17954;DHT22;9102;53.548;9.926;2023-04-07T15:03:58;11.60;99.90
17954;DHT22;9102;53.548;9.926;2023-04-07T15:06:26;11.50;99.90
17954;DHT22;9102;53.548;9.926;2023-04-07T15:08:53;11.50;99.90
17954;DHT22;9102;53.548;9.926;2023-04-07T15:11:20;11.30;99.90
17954;DHT22;9102;53.548;9.926;2023-04-07T15:13:47;11.20;99.90
17954;DHT22;9102;53.548;9.926;2023-04-07T15:16:15;10.90;99.90
17954;DHT22;9102;53.548;9.926;2023-04-07T15:18:44;10.80;99.90
17954;DHT22;9102;53.548;9.926;2023-04-07T15:21:12;10.60;99.90
17954;DHT22;9102;53.548;9.926;2023-04-07T15:23:39;10.50;99.90
17954;DHT22;9102;53.548;9.926;2023-04-07T15:26:07;10.40;99.90
17954;DHT22;9102;53.548;9.926;2023-04-07T15:28:34;10.30;99.90
17954;DHT22;9102;53.548;9.926;2023-04-07T15:31:01;10.20;99.90
17954;DHT22;9102;53.548;9.926;2023-04-07T15:33:34;10.30;99.90
17954;DHT22;9102;53.548;9.926;2023-04-07T15:36:01;10.30;99.90
17954;DHT22;9102;53.548;9.926;2023-04-07T15:38:28;10.30;99.90
17954;DHT22;9102;53.548;9.926;2023-04-07T15:40:55;10.20;99.90
17954;DHT22;9102;53.548;9.926;2023-04-07T15:43:22;10.10;99.90
17954;DHT22;9102;53.548;9.926;2023-04-07T15:45:48;10.30;99.90
17954;DHT22;9102;53.548;9.926;2023-04-07T15:48:16;10.30;99.90
17954;DHT22;9102;53.548;9.926;2023-04-07T15:50:44;10.40;99.90
17954;DHT22;9102;53.548;9.926;2023-04-07T15:53:11;10.40;99.90
17954;DHT22;9102;53.548;9.926;2023-04-07T15:55:38;10.40;99.90
17954;DHT22;9102;53.548;9.926;2023-04-07T15:58:06;10.30;99.90
17954;DHT22;9102;53.548;9.926;2023-04-07T16:00:35;10.40;99.90
17954;DHT22;9102;53.548;9.926;2023-04-07T16:03:03;10.30;99.90
17954;DHT22;9102;53.548;9.926;2023-04-07T16:05:30;10.20;99.90
17954;DHT22;9102;53.548;9.926;2023-04-07T16:07:58;9.90;99.90